Time;durP1;ratioP1;P1;durP2;ratioP2;P2;SDS_P1;SDS_P2;PMS_P1;PMS_P2;Temp;Humidity;BMP_temperature;BMP_pressure;BME280_temperature;BME280_humidity;BME280_pressure;Samples;Min_cycle;Max_cycle;Signal;HPM_P1;HPM_P2
2024/01/19 00:01:53;;;;;;;28.10;18.10;;;;;;;;;;109289;1251;57716;-73
2024/01/19 00:04:21;;;;;;;25.10;15.00;;;;;;;;;;109276;1252;58436;-72
2024/01/19 00:06:49;;;;;;;28.80;17.70;;;;;;;;;;109115;1254;58054;-72
2024/01/19 00:09:18;;;;;;;31.60;18.10;;;;;;;;;;109246;1253;57751;-72
2024/01/19 00:11:47;;;;;;;29.10;16.50;;;;;;;;;;109274;1250;58667;-72
2024/01/19 00:14:16;;;;;;;29.60;17.40;;;;;;;;;;109277;1251;58298;-74
2024/01/19 00:16:44;;;;;;;29.80;17.00;;;;;;;;;;109411;1251;58357;-73
2024/01/19 00:19:13;;;;;;;31.10;18.30;;;;;;;;;;109360;1252;57754;-72
2024/01/19 00:21:45;;;;;;;28.10;17.30;;;;;;;;;;109378;1254;58148;-72
2024/01/19 00:24:14;;;;;;;25.40;16.40;;;;;;;;;;109163;1255;58397;-71
2024/01/19 00:26:47;;;;;;;26.40;15.70;;;;;;;;;;109253;1254;58286;-71
2024/01/19 00:29:16;;;;;;;26.20;16.70;;;;;;;;;;109399;1252;58169;-72
2024/01/19 00:31:46;;;;;;;27.00;16.10;;;;;;;;;;109458;1251;58354;-73
2024/01/19 00:34:15;;;;;;;24.60;16.00;;;;;;;;;;109420;1251;57681;-72
2024/01/19 00:36:44;;;;;;;29.00;17.00;;;;;;;;;;109139;1251;57714;-72
2024/01/19 00:39:14;;;;;;;26.50;15.40;;;;;;;;;;109430;1251;58331;-73
2024/01/19 00:41:43;;;;;;;25.50;17.00;;;;;;;;;;109450;1251;58259;-73
2024/01/19 00:44:11;;;;;;;24.70;15.60;;;;;;;;;;109435;1251;58288;-72
2024/01/19 00:46:40;;;;;;;27.20;16.30;;;;;;;;;;109429;1251;58338;-72
2024/01/19 00:49:08;;;;;;;26.10;16.60;;;;;;;;;;109410;1252;58230;-72
2024/01/19 00:51:37;;;;;;;27.50;17.90;;;;;;;;;;109435;1251;57754;-71
2024/01/19 00:54:05;;;;;;;26.70;17.20;;;;;;;;;;109443;1251;57868;-72
2024/01/19 00:56:33;;;;;;;23.10;15.70;;;;;;;;;;109444;1251;60004;-72
2024/01/19 00:59:02;;;;;;;27.00;16.80;;;;;;;;;;109402;1251;58325;-72
2024/01/19 01:01:31;;;;;;;26.20;16.20;;;;;;;;;;109420;1250;58167;-72
2024/01/19 01:04:01;;;;;;;30.50;17.10;;;;;;;;;;109423;1251;58063;-73
2024/01/19 01:06:30;;;;;;;27.10;16.60;;;;;;;;;;109276;1254;58242;-72
2024/01/19 01:09:00;;;;;;;26.50;16.60;;;;;;;;;;109433;1250;58159;-71
2024/01/19 01:11:29;;;;;;;23.00;15.20;;;;;;;;;;109386;1251;58286;-71
2024/01/19 01:13:57;;;;;;;25.10;15.70;;;;;;;;;;109260;1251;58256;-72
2024/01/19 01:16:26;;;;;;;26.60;16.80;;;;;;;;;;108967;1250;57766;-72
2024/01/19 01:18:54;;;;;;;24.70;16.40;;;;;;;;;;109222;1249;58002;-71
2024/01/19 01:21:23;;;;;;;27.60;15.60;;;;;;;;;;109259;1250;58305;-72
2024/01/19 01:23:52;;;;;;;23.70;16.10;;;;;;;;;;109325;1251;57753;-71
2024/01/19 01:26:20;;;;;;;29.30;18.20;;;;;;;;;;109286;1250;59310;-72
2024/01/19 01:28:49;;;;;;;32.20;20.20;;;;;;;;;;109299;1250;57708;-71
2024/01/19 01:31:17;;;;;;;47.60;26.20;;;;;;;;;;109345;1250;58245;-72
2024/01/19 01:33:45;;;;;;;36.90;21.60;;;;;;;;;;109406;1251;58535;-72
2024/01/19 01:36:14;;;;;;;31.40;19.00;;;;;;;;;;109225;1254;58293;-72
2024/01/19 01:38:43;;;;;;;29.70;17.90;;;;;;;;;;109410;1251;57702;-72
2024/01/19 01:41:11;;;;;;;29.50;19.30;;;;;;;;;;109406;1249;59409;-72
2024/01/19 01:43:40;;;;;;;31.30;19.50;;;;;;;;;;109343;1250;58208;-72
2024/01/19 01:46:08;;;;;;;40.20;23.60;;;;;;;;;;109276;1251;58378;-72
2024/01/19 01:48:37;;;;;;;32.90;20.40;;;;;;;;;;109080;1250;57811;-71
2024/01/19 01:51:06;;;;;;;35.30;21.20;;;;;;;;;;109268;1251;58218;-72
2024/01/19 01:53:35;;;;;;;35.30;21.10;;;;;;;;;;109241;1251;57761;-72
2024/01/19 01:56:07;;;;;;;32.20;20.80;;;;;;;;;;109108;1251;59523;-71
2024/01/19 01:58:35;;;;;;;39.30;22.80;;;;;;;;;;109257;1251;57825;-73
2024/01/19 02:01:04;;;;;;;40.90;22.50;;;;;;;;;;109301;1251;57764;-76
2024/01/19 02:03:32;;;;;;;37.70;21.90;;;;;;;;;;109270;1251;59949;-75
2024/01/19 02:06:01;;;;;;;31.80;20.60;;;;;;;;;;109110;1254;57770;-75
2024/01/19 02:08:30;;;;;;;30.20;19.30;;;;;;;;;;109406;1250;57725;-72
2024/01/19 02:10:58;;;;;;;30.20;18.80;;;;;;;;;;109414;1251;59547;-74
2024/01/19 02:13:27;;;;;;;27.60;17.70;;;;;;;;;;109395;1250;57736;-72
2024/01/19 02:15:59;;;;;;;31.80;19.00;;;;;;;;;;109407;1251;58198;-72
2024/01/19 02:18:28;;;;;;;28.00;18.50;;;;;;;;;;109409;1250;58326;-72
2024/01/19 02:20:57;;;;;;;33.90;18.40;;;;;;;;;;109229;1254;58224;-73
2024/01/19 02:23:27;;;;;;;28.00;17.30;;;;;;;;;;109430;1250;57791;-71
2024/01/19 02:25:56;;;;;;;31.20;16.90;;;;;;;;;;109224;1251;58137;-72
2024/01/19 02:28:24;;;;;;;38.40;23.90;;;;;;;;;;109126;1250;58251;-72
2024/01/19 02:30:53;;;;;;;33.50;20.80;;;;;;;;;;109275;1251;58179;-72
2024/01/19 02:33:21;;;;;;;38.30;21.00;;;;;;;;;;109193;1250;58216;-72
2024/01/19 02:35:50;;;;;;;34.70;21.10;;;;;;;;;;109197;1252;58437;-71
2024/01/19 02:38:18;;;;;;;32.20;21.20;;;;;;;;;;109026;1251;58415;-72
2024/01/19 02:40:47;;;;;;;31.50;18.70;;;;;;;;;;109222;1250;57680;-72
2024/01/19 02:43:15;;;;;;;29.40;18.40;;;;;;;;;;109181;1250;58297;-72
2024/01/19 02:45:43;;;;;;;30.60;19.10;;;;;;;;;;109238;1251;58195;-72
2024/01/19 02:48:12;;;;;;;28.80;18.60;;;;;;;;;;109198;1250;57864;-73
2024/01/19 02:50:41;;;;;;;27.70;18.90;;;;;;;;;;109244;1251;57828;-74
2024/01/19 02:53:10;;;;;;;28.30;17.60;;;;;;;;;;109077;1250;57710;-75
2024/01/19 02:55:38;;;;;;;25.40;16.30;;;;;;;;;;109105;1251;60116;-74
2024/01/19 02:58:07;;;;;;;30.70;18.00;;;;;;;;;;109256;1249;57815;-73
2024/01/19 03:00:35;;;;;;;30.10;19.00;;;;;;;;;;109108;1250;57775;-74
2024/01/19 03:03:04;;;;;;;36.50;25.70;;;;;;;;;;109264;1250;58201;-71
2024/01/19 03:05:32;;;;;;;31.80;19.80;;;;;;;;;;108962;1250;58170;-70
2024/01/19 03:08:02;;;;;;;32.30;19.40;;;;;;;;;;109314;1251;58243;-70
2024/01/19 03:10:30;;;;;;;34.50;20.00;;;;;;;;;;109458;1251;57824;-71
2024/01/19 03:12:58;;;;;;;31.20;19.70;;;;;;;;;;109479;1251;57847;-72
2024/01/19 03:15:27;;;;;;;30.50;17.50;;;;;;;;;;109460;1251;57804;-72
2024/01/19 03:17:55;;;;;;;29.10;19.20;;;;;;;;;;109451;1250;58843;-72
2024/01/19 03:20:24;;;;;;;28.00;17.60;;;;;;;;;;109439;1249;57791;-72
2024/01/19 03:22:52;;;;;;;29.90;18.00;;;;;;;;;;109485;1250;58196;-71
2024/01/19 03:25:21;;;;;;;27.70;16.80;;;;;;;;;;109469;1251;58260;-72
2024/01/19 03:27:49;;;;;;;28.90;17.30;;;;;;;;;;109482;1251;58390;-71
2024/01/19 03:30:18;;;;;;;26.80;16.50;;;;;;;;;;109262;1251;57750;-71
2024/01/19 03:32:46;;;;;;;27.30;17.20;;;;;;;;;;109436;1250;58150;-71
2024/01/19 03:35:15;;;;;;;26.00;16.10;;;;;;;;;;109396;1250;58099;-70
2024/01/19 03:37:43;;;;;;;24.70;15.60;;;;;;;;;;109453;1249;57753;-72
2024/01/19 03:40:12;;;;;;;26.30;16.00;;;;;;;;;;109449;1250;58221;-72
2024/01/19 03:42:40;;;;;;;24.00;15.40;;;;;;;;;;109479;1250;58226;-71
2024/01/19 03:45:09;;;;;;;30.00;16.20;;;;;;;;;;109439;1250;58208;-71
2024/01/19 03:47:37;;;;;;;27.10;16.30;;;;;;;;;;109452;1250;58989;-70
2024/01/19 03:50:08;;;;;;;30.10;16.90;;;;;;;;;;109462;1250;58420;-71
2024/01/19 03:52:37;;;;;;;28.20;16.00;;;;;;;;;;109443;1250;58258;-70
2024/01/19 03:55:06;;;;;;;29.20;17.10;;;;;;;;;;109285;1250;58428;-72
2024/01/19 03:57:35;;;;;;;31.50;17.60;;;;;;;;;;109275;1249;57752;-72
2024/01/19 04:00:05;;;;;;;29.20;17.50;;;;;;;;;;109475;1250;58268;-71
2024/01/19 04:02:38;;;;;;;30.30;17.00;;;;;;;;;;109418;1250;59068;-72
2024/01/19 04:05:07;;;;;;;29.10;18.00;;;;;;;;;;109459;1250;57699;-72
2024/01/19 04:07:36;;;;;;;28.60;16.70;;;;;;;;;;109489;1250;58176;-72
2024/01/19 04:10:05;;;;;;;26.50;15.90;;;;;;;;;;109504;1250;59522;-70
2024/01/19 04:12:33;;;;;;;27.10;17.10;;;;;;;;;;109522;1250;57822;-70
2024/01/19 04:15:05;;;;;;;39.20;26.80;;;;;;;;;;109347;1251;58192;-70
2024/01/19 04:17:33;;;;;;;30.30;21.40;;;;;;;;;;109472;1250;59554;-71
2024/01/19 04:20:02;;;;;;;32.30;20.50;;;;;;;;;;109474;1250;58206;-70
2024/01/19 04:22:33;;;;;;;28.80;17.50;;;;;;;;;;109497;1250;58151;-70
2024/01/19 04:25:02;;;;;;;27.20;16.90;;;;;;;;;;109527;1250;59345;-71
2024/01/19 04:27:30;;;;;;;25.30;16.30;;;;;;;;;;109493;1249;57780;-70
2024/01/19 04:29:58;;;;;;;28.30;18.10;;;;;;;;;;109319;1250;57702;-71
2024/01/19 04:32:27;;;;;;;32.60;17.80;;;;;;;;;;109388;1249;58154;-71
2024/01/19 04:34:56;;;;;;;30.10;17.40;;;;;;;;;;109574;1248;57784;-71
2024/01/19 04:37:25;;;;;;;28.50;17.40;;;;;;;;;;109530;1249;57776;-71
2024/01/19 04:39:53;;;;;;;30.30;18.40;;;;;;;;;;109584;1249;58499;-70
2024/01/19 04:42:21;;;;;;;34.00;19.10;;;;;;;;;;109482;1249;58164;-71
2024/01/19 04:44:51;;;;;;;26.70;16.70;;;;;;;;;;109488;1250;58245;-70
2024/01/19 04:47:19;;;;;;;24.40;16.10;;;;;;;;;;109476;1250;58826;-72
2024/01/19 04:49:49;;;;;;;29.40;16.40;;;;;;;;;;109359;1251;58160;-72
2024/01/19 04:52:17;;;;;;;31.20;17.60;;;;;;;;;;109523;1249;58015;-73
2024/01/19 04:54:45;;;;;;;27.60;17.00;;;;;;;;;;109319;1251;59174;-73
2024/01/19 04:57:14;;;;;;;28.90;18.10;;;;;;;;;;109573;1249;58415;-78
2024/01/19 04:59:42;;;;;;;27.50;17.10;;;;;;;;;;109580;1249;58173;-74
2024/01/19 05:02:11;;;;;;;32.20;20.60;;;;;;;;;;109524;1249;57812;-75
2024/01/19 05:04:41;;;;;;;31.00;19.20;;;;;;;;;;109583;1249;57770;-74
2024/01/19 05:07:10;;;;;;;26.90;17.90;;;;;;;;;;109587;1250;58188;-75
2024/01/19 05:09:38;;;;;;;29.30;17.20;;;;;;;;;;109606;1249;59471;-83
2024/01/19 05:12:07;;;;;;;30.60;18.20;;;;;;;;;;109420;1252;58102;-74
2024/01/19 05:14:35;;;;;;;25.80;16.50;;;;;;;;;;109452;1249;57785;-73
2024/01/19 05:17:04;;;;;;;28.00;18.70;;;;;;;;;;109576;1249;58313;-81
2024/01/19 05:19:32;;;;;;;28.30;17.90;;;;;;;;;;109347;1251;58281;-73
2024/01/19 05:22:01;;;;;;;32.80;18.70;;;;;;;;;;109284;1253;58176;-72
2024/01/19 05:24:29;;;;;;;31.50;18.60;;;;;;;;;;109497;1250;58637;-74
2024/01/19 05:26:58;;;;;;;31.60;19.30;;;;;;;;;;109460;1251;58256;-74
2024/01/19 05:29:26;;;;;;;34.20;19.80;;;;;;;;;;109438;1250;58205;-73
2024/01/19 05:31:55;;;;;;;32.40;17.40;;;;;;;;;;109181;1253;58243;-74
2024/01/19 05:34:23;;;;;;;32.80;17.90;;;;;;;;;;109282;1251;58254;-73
2024/01/19 05:36:52;;;;;;;33.90;19.50;;;;;;;;;;109272;1251;58412;-73
2024/01/19 05:39:20;;;;;;;32.40;19.50;;;;;;;;;;109278;1251;58723;-72
2024/01/19 05:41:49;;;;;;;29.40;16.40;;;;;;;;;;109311;1252;57736;-73
2024/01/19 05:44:17;;;;;;;34.10;21.10;;;;;;;;;;109321;1251;58194;-74
2024/01/19 05:46:46;;;;;;;35.20;20.90;;;;;;;;;;109154;1251;57761;-73
2024/01/19 05:49:14;;;;;;;35.30;20.70;;;;;;;;;;109125;1253;58575;-74
2024/01/19 05:51:43;;;;;;;36.30;21.60;;;;;;;;;;109174;1250;58307;-73
2024/01/19 05:54:11;;;;;;;41.00;23.70;;;;;;;;;;109141;1251;59188;-77
2024/01/19 05:56:40;;;;;;;39.70;23.00;;;;;;;;;;109169;1251;58187;-74
2024/01/19 05:59:08;;;;;;;38.80;23.70;;;;;;;;;;109175;1250;58316;-74
2024/01/19 06:01:37;;;;;;;39.70;22.80;;;;;;;;;;109133;1253;58188;-73
2024/01/19 06:04:05;;;;;;;46.90;23.70;;;;;;;;;;109134;1253;58241;-75
2024/01/19 06:06:34;;;;;;;37.10;21.80;;;;;;;;;;109129;1251;58380;-73
2024/01/19 06:09:02;;;;;;;22.60;13.90;;;;;;;;;;109264;1250;59725;-72
2024/01/19 06:11:31;;;;;;;28.30;16.30;;;;;;;;;;109276;1250;58647;-78
2024/01/19 06:14:00;;;;;;;24.90;16.60;;;;;;;;;;109257;1250;58334;-80
2024/01/19 06:16:32;;;;;;;24.90;16.20;;;;;;;;;;109240;1250;58195;-83
2024/01/19 06:19:00;;;;;;;22.50;14.20;;;;;;;;;;109075;1254;58416;-74
2024/01/19 06:21:29;;;;;;;23.70;15.80;;;;;;;;;;109306;1250;58291;-80
2024/01/19 06:23:58;;;;;;;22.10;15.00;;;;;;;;;;109335;1250;58739;-75
2024/01/19 06:26:32;;;;;;;20.10;13.00;;;;;;;;;;109143;1250;57934;-78
2024/01/19 06:29:00;;;;;;;15.00;10.40;;;;;;;;;;109288;1249;58365;-75
2024/01/19 06:31:29;;;;;;;13.90;9.40;;;;;;;;;;109200;1253;58216;-76
2024/01/19 06:33:57;;;;;;;14.80;9.00;;;;;;;;;;109340;1250;58154;-77
2024/01/19 06:36:27;;;;;;;12.90;8.10;;;;;;;;;;109410;1251;58170;-77
2024/01/19 06:38:56;;;;;;;10.60;7.10;;;;;;;;;;109432;1251;58693;-75
2024/01/19 06:41:24;;;;;;;8.80;6.20;;;;;;;;;;109406;1250;58257;-76
2024/01/19 06:43:52;;;;;;;7.00;5.10;;;;;;;;;;109408;1251;58211;-75
2024/01/19 06:46:21;;;;;;;6.60;5.10;;;;;;;;;;109371;1252;58163;-76
2024/01/19 06:48:49;;;;;;;6.70;5.20;;;;;;;;;;109374;1252;58185;-74
2024/01/19 06:51:24;;;;;;;5.00;3.80;;;;;;;;;;109257;1253;58322;-76
2024/01/19 06:53:52;;;;;;;6.90;4.30;;;;;;;;;;109244;1250;59523;-75
2024/01/19 06:56:21;;;;;;;6.30;3.80;;;;;;;;;;109432;1250;57776;-75
2024/01/19 06:58:49;;;;;;;5.50;4.00;;;;;;;;;;109463;1250;58226;-75
2024/01/19 07:01:18;;;;;;;8.90;5.20;;;;;;;;;;109404;1252;58139;-76
2024/01/19 07:03:46;;;;;;;3.90;3.10;;;;;;;;;;109406;1250;57706;-75
2024/01/19 07:06:15;;;;;;;4.10;3.00;;;;;;;;;;109258;1249;57760;-76
2024/01/19 07:08:44;;;;;;;4.20;2.80;;;;;;;;;;109426;1252;58463;-76
2024/01/19 07:11:13;;;;;;;3.10;2.50;;;;;;;;;;109404;1250;57666;-75
2024/01/19 07:13:42;;;;;;;4.00;2.90;;;;;;;;;;109467;1249;57834;-76
2024/01/19 07:16:10;;;;;;;3.90;2.90;;;;;;;;;;109379;1252;57808;-77
2024/01/19 07:18:38;;;;;;;4.20;3.10;;;;;;;;;;109415;1252;58206;-76
2024/01/19 07:21:07;;;;;;;4.70;2.70;;;;;;;;;;109340;1251;58279;-76
2024/01/19 07:23:36;;;;;;;3.20;2.60;;;;;;;;;;109408;1250;60339;-75
2024/01/19 07:26:04;;;;;;;3.00;2.20;;;;;;;;;;109415;1250;58123;-75
2024/01/19 07:28:33;;;;;;;4.60;3.10;;;;;;;;;;109408;1250;58253;-76
2024/01/19 07:31:01;;;;;;;4.30;3.00;;;;;;;;;;109222;1249;59003;-75
2024/01/19 07:33:30;;;;;;;6.80;3.40;;;;;;;;;;109227;1254;58329;-75
2024/01/19 07:36:01;;;;;;;5.70;3.80;;;;;;;;;;109221;1250;57813;-75
2024/01/19 07:38:30;;;;;;;4.10;3.50;;;;;;;;;;109106;1251;61070;-74
2024/01/19 07:40:58;;;;;;;5.50;3.60;;;;;;;;;;109140;1254;58277;-74
2024/01/19 07:43:27;;;;;;;5.60;3.70;;;;;;;;;;109327;1250;58204;-74
2024/01/19 07:45:56;;;;;;;3.60;2.80;;;;;;;;;;109170;1253;58869;-75
2024/01/19 07:48:24;;;;;;;5.00;3.70;;;;;;;;;;109279;1250;57864;-75
2024/01/19 07:50:54;;;;;;;4.40;3.10;;;;;;;;;;109302;1250;58231;-75
2024/01/19 07:53:22;;;;;;;5.20;3.00;;;;;;;;;;109334;1250;58638;-75
2024/01/19 07:55:51;;;;;;;11.50;3.40;;;;;;;;;;109401;1250;58116;-74
2024/01/19 07:58:19;;;;;;;6.40;3.30;;;;;;;;;;109209;1250;58002;-76
2024/01/19 08:00:48;;;;;;;4.30;3.10;;;;;;;;;;109400;1250;57737;-75
2024/01/19 08:03:17;;;;;;;4.90;2.80;;;;;;;;;;109438;1250;58240;-75
2024/01/19 08:05:46;;;;;;;5.10;3.50;;;;;;;;;;109261;1251;58376;-77
2024/01/19 08:08:15;;;;;;;5.20;3.80;;;;;;;;;;109453;1250;57728;-76
2024/01/19 08:10:43;;;;;;;6.30;4.00;;;;;;;;;;109439;1252;58342;-75
2024/01/19 08:13:12;;;;;;;4.80;3.30;;;;;;;;;;109422;1250;58166;-75
2024/01/19 08:15:40;;;;;;;6.70;3.50;;;;;;;;;;109410;1250;58268;-75
2024/01/19 08:18:09;;;;;;;5.60;3.70;;;;;;;;;;109415;1250;58341;-74
2024/01/19 08:20:37;;;;;;;4.40;3.40;;;;;;;;;;109281;1251;58354;-74
2024/01/19 08:23:06;;;;;;;5.50;3.60;;;;;;;;;;109305;1250;58161;-75
2024/01/19 08:25:34;;;;;;;5.30;3.10;;;;;;;;;;109329;1250;58323;-76
2024/01/19 08:28:03;;;;;;;3.80;2.70;;;;;;;;;;109100;1250;58310;-75
2024/01/19 08:30:32;;;;;;;5.60;3.00;;;;;;;;;;109231;1251;58383;-75
2024/01/19 08:33:01;;;;;;;4.80;3.70;;;;;;;;;;109268;1250;58384;-75
2024/01/19 08:35:30;;;;;;;4.70;3.00;;;;;;;;;;109316;1251;58329;-75
2024/01/19 08:37:59;;;;;;;5.00;2.80;;;;;;;;;;109278;1251;57717;-74
2024/01/19 08:40:27;;;;;;;5.00;3.70;;;;;;;;;;109304;1251;58327;-75
2024/01/19 08:42:56;;;;;;;4.80;3.20;;;;;;;;;;109317;1250;57778;-74
2024/01/19 08:45:28;;;;;;;3.90;2.90;;;;;;;;;;109263;1250;58888;-74
2024/01/19 08:47:59;;;;;;;6.40;3.70;;;;;;;;;;109258;1250;58252;-75
2024/01/19 08:50:28;;;;;;;5.30;3.60;;;;;;;;;;109274;1250;58173;-75
2024/01/19 08:52:57;;;;;;;5.10;3.50;;;;;;;;;;109256;1250;59102;-75
2024/01/19 08:55:26;;;;;;;4.30;3.00;;;;;;;;;;109219;1250;58767;-74
2024/01/19 08:57:55;;;;;;;5.70;3.40;;;;;;;;;;109239;1250;58258;-76
2024/01/19 09:00:24;;;;;;;5.80;4.10;;;;;;;;;;109211;1250;58345;-74
2024/01/19 09:02:52;;;;;;;5.00;3.30;;;;;;;;;;109239;1249;58303;-75
2024/01/19 09:05:31;;;;;;;4.00;2.90;;;;;;;;;;109242;1251;57710;-74
2024/01/19 09:08:00;;;;;;;5.60;3.80;;;;;;;;;;109233;1250;58264;-74
2024/01/19 09:10:32;;;;;;;6.80;3.50;;;;;;;;;;109075;1251;58143;-75
2024/01/19 09:13:01;;;;;;;4.90;3.50;;;;;;;;;;109267;1250;58112;-75
2024/01/19 09:15:30;;;;;;;4.90;2.90;;;;;;;;;;109276;1250;59016;-75
2024/01/19 09:17:59;;;;;;;5.10;3.50;;;;;;;;;;109233;1250;58330;-75
2024/01/19 09:20:27;;;;;;;5.10;3.50;;;;;;;;;;109285;1250;58244;-75
2024/01/19 09:22:56;;;;;;;5.40;3.20;;;;;;;;;;109290;1250;58343;-76
2024/01/19 09:25:24;;;;;;;6.10;3.80;;;;;;;;;;109310;1250;58205;-75
2024/01/19 09:27:53;;;;;;;5.70;3.80;;;;;;;;;;109266;1250;58289;-75
2024/01/19 09:30:22;;;;;;;5.40;3.90;;;;;;;;;;109192;1250;58288;-77
2024/01/19 09:32:50;;;;;;;6.20;3.90;;;;;;;;;;109234;1250;58177;-75
2024/01/19 09:35:19;;;;;;;4.50;3.00;;;;;;;;;;109247;1249;58206;-74
2024/01/19 09:37:48;;;;;;;7.20;4.30;;;;;;;;;;109222;1250;58796;-75
2024/01/19 09:40:19;;;;;;;5.70;4.10;;;;;;;;;;109121;1250;58308;-74
2024/01/19 09:42:49;;;;;;;7.80;4.90;;;;;;;;;;109082;1251;57805;-76
2024/01/19 09:45:19;;;;;;;5.60;3.60;;;;;;;;;;109240;1250;58879;-75
2024/01/19 09:47:59;;;;;;;5.10;3.30;;;;;;;;;;109065;1251;58443;-75
2024/01/19 09:50:33;;;;;;;6.30;4.10;;;;;;;;;;109245;1251;57765;-75
2024/01/19 09:53:11;;;;;;;6.80;4.80;;;;;;;;;;109068;1251;58400;-75
2024/01/19 09:55:39;;;;;;;8.20;4.80;;;;;;;;;;109260;1249;58239;-74
2024/01/19 09:58:09;;;;;;;6.90;4.90;;;;;;;;;;109229;1250;58381;-75
2024/01/19 10:00:38;;;;;;;4.80;3.50;;;;;;;;;;108752;1250;60365;-74
2024/01/19 10:03:08;;;;;;;6.70;4.60;;;;;;;;;;109061;1251;58204;-75
2024/01/19 10:05:37;;;;;;;8.40;5.00;;;;;;;;;;109118;1251;57710;-75
2024/01/19 10:08:06;;;;;;;7.00;4.40;;;;;;;;;;109276;1250;58544;-75
2024/01/19 10:10:42;;;;;;;7.00;4.00;;;;;;;;;;109082;1250;57818;-74
2024/01/19 10:13:11;;;;;;;7.10;5.40;;;;;;;;;;109088;1250;57819;-75
2024/01/19 10:15:42;;;;;;;9.10;5.40;;;;;;;;;;109142;1251;57665;-76
2024/01/19 10:18:11;;;;;;;7.30;5.10;;;;;;;;;;109077;1253;57798;-74
2024/01/19 10:20:41;;;;;;;7.20;4.40;;;;;;;;;;109297;1250;57865;-75
2024/01/19 10:23:21;;;;;;;6.60;4.50;;;;;;;;;;109298;1250;59607;-74
2024/01/19 10:25:50;;;;;;;7.00;4.90;;;;;;;;;;109279;1250;58366;-74
2024/01/19 10:28:30;;;;;;;6.90;4.50;;;;;;;;;;109077;1250;57793;-74
2024/01/19 10:31:26;;;;;;;7.60;4.80;;;;;;;;;;109283;1250;58978;-75
2024/01/19 10:33:56;;;;;;;7.80;4.90;;;;;;;;;;109049;1250;58267;-75
2024/01/19 10:36:26;;;;;;;6.90;4.60;;;;;;;;;;109155;1251;58280;-75
2024/01/19 10:39:14;;;;;;;8.10;5.40;;;;;;;;;;109201;1250;58383;-74
2024/01/19 10:41:43;;;;;;;9.40;5.30;;;;;;;;;;109157;1250;58306;-74
2024/01/19 10:44:20;;;;;;;10.60;6.20;;;;;;;;;;109263;1251;57784;-74
2024/01/19 10:46:53;;;;;;;9.80;5.10;;;;;;;;;;109174;1251;59045;-74
2024/01/19 10:49:21;;;;;;;9.70;5.50;;;;;;;;;;109153;1251;57883;-75
2024/01/19 10:51:50;;;;;;;8.50;5.90;;;;;;;;;;109176;1251;57776;-74
2024/01/19 10:54:25;;;;;;;7.40;5.40;;;;;;;;;;109183;1250;58670;-74
2024/01/19 10:57:09;;;;;;;9.70;5.90;;;;;;;;;;108848;1250;304508;-74
2024/01/19 10:59:37;;;;;;;;;;;;;;;;;;109117;1250;58242;-74
2024/01/19 11:02:06;;;;;;;9.70;6.40;;;;;;;;;;109263;1251;57743;-75
2024/01/19 11:04:35;;;;;;;8.60;5.90;;;;;;;;;;109300;1251;57806;-75
2024/01/19 11:07:07;;;;;;;8.80;4.70;;;;;;;;;;109035;1250;58353;-75
2024/01/19 11:09:37;;;;;;;9.60;5.70;;;;;;;;;;109155;1251;59404;-74
2024/01/19 11:12:07;;;;;;;9.30;5.20;;;;;;;;;;109134;1250;58378;-75
2024/01/19 11:14:37;;;;;;;8.60;5.50;;;;;;;;;;108982;1251;58211;-76
2024/01/19 11:17:06;;;;;;;9.60;5.70;;;;;;;;;;108909;1251;58359;-75
2024/01/19 11:19:35;;;;;;;8.30;6.30;;;;;;;;;;108997;1252;58313;-78
2024/01/19 11:22:04;;;;;;;7.70;4.30;;;;;;;;;;109035;1251;58263;-76
2024/01/19 11:24:36;;;;;;;8.20;5.70;;;;;;;;;;109149;1251;57792;-76
2024/01/19 11:27:21;;;;;;;8.90;5.80;;;;;;;;;;109033;1252;58313;-76
2024/01/19 11:29:51;;;;;;;8.10;5.70;;;;;;;;;;109091;1251;57838;-75
2024/01/19 11:32:20;;;;;;;6.70;4.50;;;;;;;;;;108976;1250;58216;-75
2024/01/19 11:34:50;;;;;;;9.30;6.20;;;;;;;;;;108980;1253;58090;-75
2024/01/19 11:37:47;;;;;;;9.60;5.90;;;;;;;;;;108993;1251;58341;-75
2024/01/19 11:40:24;;;;;;;10.20;6.20;;;;;;;;;;109104;1251;59598;-77
2024/01/19 11:42:53;;;;;;;7.40;5.30;;;;;;;;;;109181;1251;58195;-75
2024/01/19 11:45:28;;;;;;;9.50;5.30;;;;;;;;;;109177;1250;58274;-75
2024/01/19 11:47:56;;;;;;;9.20;6.00;;;;;;;;;;109152;1251;58337;-74
2024/01/19 11:50:44;;;;;;;9.60;5.80;;;;;;;;;;109123;1254;58460;-74
2024/01/19 11:53:14;;;;;;;7.40;5.10;;;;;;;;;;109174;1251;58268;-74
2024/01/19 11:55:45;;;;;;;9.60;5.70;;;;;;;;;;109057;1251;60268;-74
2024/01/19 11:58:35;;;;;;;9.10;5.80;;;;;;;;;;109217;1250;58263;-75
2024/01/19 12:01:04;;;;;;;9.90;6.80;;;;;;;;;;109186;1251;58434;-75
2024/01/19 12:03:33;;;;;;;9.60;6.50;;;;;;;;;;109274;1250;58207;-76
2024/01/19 12:06:03;;;;;;;9.20;6.60;;;;;;;;;;109170;1251;58275;-74
2024/01/19 12:08:32;;;;;;;9.90;6.00;;;;;;;;;;109201;1251;58245;-74
2024/01/19 12:11:11;;;;;;;10.10;6.90;;;;;;;;;;109334;1253;58210;-74
2024/01/19 12:13:40;;;;;;;11.00;7.00;;;;;;;;;;109066;1251;58220;-73
2024/01/19 12:16:20;;;;;;;12.20;6.50;;;;;;;;;;109231;1255;58262;-75
2024/01/19 12:18:53;;;;;;;11.00;6.70;;;;;;;;;;109349;1251;58299;-75
2024/01/19 12:21:23;;;;;;;11.90;7.60;;;;;;;;;;109329;1252;58158;-75
2024/01/19 12:23:56;;;;;;;8.60;5.50;;;;;;;;;;109255;1251;58418;-74
2024/01/19 12:26:25;;;;;;;9.50;6.10;;;;;;;;;;109326;1253;58339;-75
2024/01/19 12:28:56;;;;;;;10.80;6.30;;;;;;;;;;109195;1253;58412;-74
2024/01/19 12:31:36;;;;;;;9.40;5.60;;;;;;;;;;109199;1250;58153;-75
2024/01/19 12:34:15;;;;;;;11.40;7.00;;;;;;;;;;109071;1250;58929;-74
2024/01/19 12:36:44;;;;;;;9.30;6.60;;;;;;;;;;109287;1251;58373;-75
2024/01/19 12:39:14;;;;;;;11.20;7.40;;;;;;;;;;109192;1252;57748;-75
2024/01/19 12:41:43;;;;;;;13.50;7.60;;;;;;;;;;109311;1251;59679;-74
2024/01/19 12:44:13;;;;;;;9.20;6.70;;;;;;;;;;109341;1251;58327;-75
2024/01/19 12:46:48;;;;;;;10.80;6.90;;;;;;;;;;109372;1251;58224;-74
2024/01/19 12:49:17;;;;;;;12.00;7.40;;;;;;;;;;109321;1253;58646;-75
2024/01/19 12:51:46;;;;;;;10.20;6.00;;;;;;;;;;109235;1255;58301;-74
2024/01/19 12:54:15;;;;;;;11.80;7.80;;;;;;;;;;109340;1253;58389;-75
2024/01/19 12:56:44;;;;;;;13.50;9.10;;;;;;;;;;109345;1251;59860;-75
2024/01/19 12:59:15;;;;;;;13.20;8.40;;;;;;;;;;109247;1251;57713;-75
2024/01/19 13:01:46;;;;;;;14.00;8.20;;;;;;;;;;109192;1251;58337;-75
2024/01/19 13:04:16;;;;;;;9.40;6.10;;;;;;;;;;109206;1252;57825;-75
2024/01/19 13:06:45;;;;;;;13.90;8.60;;;;;;;;;;109229;1251;58246;-75
2024/01/19 13:09:17;;;;;;;14.70;8.40;;;;;;;;;;109358;1253;58191;-76
2024/01/19 13:11:45;;;;;;;15.90;9.80;;;;;;;;;;109222;1250;60001;-75
2024/01/19 13:14:14;;;;;;;13.60;8.20;;;;;;;;;;109374;1252;58262;-76
2024/01/19 13:16:54;;;;;;;16.50;10.20;;;;;;;;;;109379;1253;58347;-76
2024/01/19 13:19:23;;;;;;;12.90;8.80;;;;;;;;;;109377;1251;58227;-76
2024/01/19 13:21:52;;;;;;;15.70;9.00;;;;;;;;;;109208;1253;58401;-75
2024/01/19 13:24:25;;;;;;;;;;;;;;;;;;109404;1250;58129;-78
2024/01/19 13:26:59;;;;;;;15.30;10.00;;;;;;;;;;109497;1250;58269;-74
2024/01/19 13:29:28;;;;;;;14.40;8.70;;;;;;;;;;109357;1250;58176;-75
2024/01/19 13:31:57;;;;;;;14.40;9.00;;;;;;;;;;109499;1251;58432;-76
2024/01/19 13:34:27;;;;;;;14.50;9.40;;;;;;;;;;109200;1251;58109;-74
2024/01/19 13:36:58;;;;;;;14.80;8.90;;;;;;;;;;109276;1253;58274;-74
2024/01/19 13:39:27;;;;;;;15.80;9.80;;;;;;;;;;109453;1250;57819;-74
2024/01/19 13:41:57;;;;;;;17.10;10.20;;;;;;;;;;109234;1250;57846;-78
2024/01/19 13:44:27;;;;;;;16.10;8.40;;;;;;;;;;109288;1251;57882;-75
2024/01/19 13:46:56;;;;;;;15.00;9.40;;;;;;;;;;109473;1250;58365;-76
2024/01/19 13:49:25;;;;;;;18.60;11.10;;;;;;;;;;109455;1250;58099;-78
2024/01/19 13:51:53;;;;;;;17.40;10.50;;;;;;;;;;109457;1252;58179;-73
2024/01/19 13:54:22;;;;;;;15.40;9.80;;;;;;;;;;109434;1250;57719;-73
2024/01/19 13:56:50;;;;;;;17.30;10.50;;;;;;;;;;109429;1252;59512;-73
2024/01/19 13:59:19;;;;;;;17.50;10.20;;;;;;;;;;109413;1250;57816;-73
2024/01/19 14:01:48;;;;;;;14.20;8.80;;;;;;;;;;109546;1251;57912;-73
2024/01/19 14:04:17;;;;;;;18.40;10.40;;;;;;;;;;109476;1251;58774;-80
2024/01/19 14:06:45;;;;;;;18.30;10.80;;;;;;;;;;109379;1251;58231;-75
2024/01/19 14:09:14;;;;;;;20.10;10.80;;;;;;;;;;109210;1254;58207;-75
2024/01/19 14:11:43;;;;;;;19.30;11.30;;;;;;;;;;109303;1253;57905;-75
2024/01/19 14:14:12;;;;;;;17.70;9.60;;;;;;;;;;109466;1250;58365;-76
2024/01/19 14:16:40;;;;;;;19.30;10.90;;;;;;;;;;109321;1251;58296;-76
2024/01/19 14:19:09;;;;;;;17.30;9.30;;;;;;;;;;109363;1252;58302;-74
2024/01/19 14:21:39;;;;;;;14.90;9.50;;;;;;;;;;109420;1251;57717;-75
2024/01/19 14:24:07;;;;;;;19.30;12.20;;;;;;;;;;109482;1253;58205;-74
2024/01/19 14:26:36;;;;;;;18.10;11.60;;;;;;;;;;109369;1251;57871;-75
2024/01/19 14:29:04;;;;;;;17.60;10.60;;;;;;;;;;109461;1252;58311;-75
2024/01/19 14:31:33;;;;;;;15.10;9.10;;;;;;;;;;109388;1250;58271;-77